createdAt,value
2023-03-06T06:03:35.688Z,476.00
2023-03-06T06:04:36.617Z,475.00
2023-03-06T06:05:35.647Z,475.00
2023-03-06T06:06:36.686Z,474.00
2023-03-06T06:07:35.723Z,472.00
2023-03-06T06:08:36.748Z,471.00
2023-03-06T06:09:36.775Z,474.00
2023-03-06T06:10:36.777Z,477.00
2023-03-06T06:11:36.805Z,476.00
2023-03-06T06:12:36.812Z,475.00
2023-03-06T06:13:36.799Z,476.00
2023-03-06T06:14:36.790Z,475.00
2023-03-06T06:15:36.846Z,477.00
2023-03-06T06:16:36.774Z,478.00
2023-03-06T06:17:36.760Z,477.00
2023-03-06T06:18:38.685Z,476.00
2023-03-06T06:19:36.789Z,476.00
2023-03-06T06:20:36.762Z,477.00
2023-03-06T06:21:36.753Z,473.00
2023-03-06T06:22:36.744Z,473.00
2023-03-06T06:23:36.731Z,473.00
2023-03-06T06:24:36.720Z,472.00
2023-03-06T06:25:36.717Z,471.00
2023-03-06T06:26:36.701Z,474.00
2023-03-06T06:27:36.689Z,484.00
2023-03-06T06:28:36.730Z,486.00
2023-03-06T06:29:36.683Z,490.00
2023-03-06T06:30:36.678Z,493.00
2023-03-06T06:31:36.665Z,493.00
2023-03-06T06:32:35.732Z,497.00
2023-03-06T06:33:36.650Z,499.00
2023-03-06T06:34:36.648Z,505.00
2023-03-06T06:35:36.756Z,521.00
2023-03-06T06:36:35.643Z,533.00
2023-03-06T06:37:36.674Z,543.00
2023-03-06T06:38:36.620Z,553.00
2023-03-06T06:39:35.626Z,565.00
2023-03-06T06:40:36.602Z,579.00
2023-03-06T06:41:54.858Z,597.00
2023-03-06T06:42:39.818Z,655.00
2023-03-06T06:43:36.596Z,674.00
2023-03-06T06:44:36.612Z,689.00
2023-03-06T06:45:35.564Z,697.00
2023-03-06T06:47:36.556Z,703.00
2023-03-06T06:48:36.554Z,715.00
2023-03-06T06:49:36.577Z,736.00
2023-03-06T06:50:36.554Z,769.00
2023-03-06T06:51:36.568Z,801.00
2023-03-06T06:52:36.538Z,884.00
2023-03-06T06:53:36.517Z,904.00
2023-03-06T06:54:36.509Z,953.00
2023-03-06T06:55:36.498Z,971.00
2023-03-06T06:56:36.498Z,985.00
2023-03-06T06:57:36.500Z,1005.00
2023-03-06T06:58:36.502Z,1041.00
2023-03-06T06:59:36.471Z,1117.00
2023-03-06T07:00:36.466Z,1140.00
2023-03-06T07:01:36.539Z,1230.00
2023-03-06T07:02:36.496Z,1254.00
2023-03-06T07:03:36.486Z,1276.00
2023-03-06T07:04:36.472Z,1343.00
2023-03-06T07:05:36.443Z,1216.00
2023-03-06T07:06:35.430Z,1131.00
2023-03-06T07:07:36.566Z,849.00
2023-03-06T07:08:35.406Z,983.00
2023-03-06T07:09:36.388Z,862.00
2023-03-06T07:10:36.398Z,877.00
2023-03-06T07:11:36.404Z,792.00
2023-03-06T07:12:36.398Z,761.00
2023-03-06T07:13:36.377Z,728.00
2023-03-06T07:14:36.363Z,740.00
2023-03-06T07:15:36.410Z,830.00
2023-03-06T07:16:36.336Z,845.00
2023-03-06T07:17:36.356Z,845.00
2023-03-06T07:18:35.332Z,823.00
2023-03-06T07:19:37.970Z,771.00
2023-03-06T07:20:35.311Z,763.00
2023-03-06T07:21:36.330Z,763.00
2023-03-06T07:22:49.836Z,771.00
2023-03-06T07:23:36.310Z,776.00
2023-03-06T07:24:36.296Z,778.00
2023-03-06T07:25:36.275Z,840.00
2023-03-06T07:26:36.304Z,860.00
2023-03-06T07:27:36.328Z,885.00
2023-03-06T07:28:51.305Z,925.00
2023-03-06T07:29:36.244Z,947.00
2023-03-06T07:30:36.256Z,974.00
2023-03-06T07:31:35.289Z,1006.00
2023-03-06T07:32:36.273Z,1056.00
2023-03-06T07:33:36.238Z,1081.00
2023-03-06T07:34:36.255Z,1111.00
2023-03-06T07:35:36.252Z,1134.00
2023-03-06T07:36:36.202Z,1158.00
2023-03-06T07:37:36.213Z,1213.00
2023-03-06T07:38:36.186Z,1237.00
2023-03-06T07:39:36.222Z,1254.00
2023-03-06T07:40:36.182Z,1265.00
2023-03-06T07:41:35.185Z,1312.00
2023-03-06T07:42:35.162Z,1350.00
2023-03-06T07:43:36.166Z,1369.00
2023-03-06T07:44:36.198Z,1385.00
2023-03-06T07:45:35.141Z,1401.00
2023-03-06T07:46:36.196Z,1465.00
2023-03-06T07:47:36.149Z,1477.00
2023-03-06T07:48:36.138Z,1507.00
2023-03-06T07:49:36.125Z,1516.00
2023-03-06T07:50:35.128Z,1551.00
2023-03-06T07:51:35.125Z,1577.00
2023-03-06T07:52:35.116Z,1608.00
2023-03-06T07:53:36.521Z,1623.00
2023-03-06T07:54:36.091Z,1641.00
2023-03-06T07:55:37.033Z,1657.00
2023-03-06T07:56:36.068Z,1672.00
2023-03-06T07:57:36.079Z,1677.00
2023-03-06T07:58:36.571Z,1690.00
2023-03-06T07:59:36.056Z,1738.00
2023-03-06T08:00:36.031Z,1775.00
2023-03-06T08:01:36.047Z,1795.00
2023-03-06T08:02:37.041Z,1816.00
2023-03-06T08:03:36.066Z,1880.00
2023-03-06T08:04:36.015Z,1896.00
2023-03-06T08:05:36.003Z,1914.00
2023-03-06T08:06:36.005Z,1940.00
2023-03-06T08:07:35.974Z,1961.00
2023-03-06T08:08:35.985Z,1986.00
2023-03-06T08:09:35.979Z,2008.00
2023-03-06T08:10:35.972Z,2045.00
2023-03-06T08:11:36.086Z,2056.00
2023-03-06T08:12:35.952Z,2065.00
2023-03-06T08:13:35.990Z,2085.00
2023-03-06T08:14:35.935Z,2107.00
2023-03-06T08:15:35.923Z,2286.00
2023-03-06T08:16:34.935Z,2246.00
2023-03-06T08:17:35.902Z,2208.00
2023-03-06T08:18:35.919Z,2206.00
2023-03-06T08:19:35.924Z,2214.00
2023-03-06T08:20:35.950Z,2218.00
2023-03-06T08:21:35.997Z,2219.00
2023-03-06T08:22:36.057Z,2225.00
2023-03-06T08:24:36.174Z,2264.00
2023-03-06T08:25:36.242Z,2293.00
2023-03-06T08:26:36.299Z,2320.00
2023-03-06T08:27:35.390Z,2332.00
2023-03-06T08:28:36.419Z,2351.00
2023-03-06T08:29:36.469Z,1887.00
2023-03-06T08:30:35.518Z,1492.00
2023-03-06T08:31:36.636Z,1420.00
2023-03-06T08:32:36.724Z,1729.00
2023-03-06T08:33:36.640Z,1778.00
2023-03-06T08:34:36.717Z,1853.00
2023-03-06T08:35:36.775Z,1831.00
2023-03-06T08:36:36.791Z,1828.00
2023-03-06T08:37:36.894Z,1821.00
2023-03-06T08:38:35.872Z,1822.00
2023-03-06T08:39:36.906Z,1824.00
2023-03-06T08:40:35.911Z,1831.00
2023-03-06T08:41:36.914Z,1839.00
2023-03-06T08:42:36.931Z,1847.00
2023-03-06T08:43:36.972Z,1854.00
2023-03-06T08:44:36.936Z,1865.00
2023-03-06T08:45:37.061Z,1872.00
2023-03-06T08:46:36.926Z,1888.00
2023-03-06T08:47:36.918Z,1901.00
2023-03-06T08:48:36.036Z,1917.00
2023-03-06T08:49:36.919Z,1944.00
2023-03-06T08:50:36.938Z,1949.00
2023-03-06T08:51:36.901Z,1951.00
2023-03-06T08:52:35.906Z,1953.00
2023-03-06T08:53:43.270Z,1954.00
2023-03-06T08:54:36.907Z,1957.00
2023-03-06T08:55:35.902Z,1953.00
2023-03-06T08:56:36.895Z,1954.00
2023-03-06T08:57:36.891Z,1950.00
2023-03-06T08:58:35.875Z,1947.00
2023-03-06T08:59:35.900Z,1944.00
2023-03-06T09:00:36.881Z,1940.00
2023-03-06T09:01:36.940Z,1931.00
2023-03-06T09:02:36.895Z,1926.00
2023-03-06T09:03:36.873Z,1920.00
2023-03-06T09:04:36.836Z,1918.00
2023-03-06T09:05:36.828Z,1910.00
2023-03-06T09:06:36.828Z,1906.00
2023-03-06T09:07:36.833Z,1898.00
2023-03-06T09:10:36.881Z,1869.00
2023-03-06T09:11:36.781Z,1859.00
2023-03-06T09:12:47.518Z,1849.00
2023-03-06T09:13:36.787Z,1842.00
2023-03-06T09:14:35.754Z,1831.00
2023-03-06T09:15:36.759Z,1819.00
2023-03-06T09:16:35.807Z,1807.00
2023-03-06T09:17:36.761Z,1799.00
2023-03-06T09:18:36.770Z,1794.00
2023-03-06T09:19:36.748Z,1786.00
2023-03-06T09:31:36.652Z,1683.00
2023-03-06T09:32:36.644Z,1678.00
2023-03-06T09:33:36.623Z,1664.00
2023-03-06T09:34:36.604Z,1650.00
2023-03-06T09:35:36.658Z,1642.00
2023-03-06T09:36:53.335Z,1632.00
2023-03-06T09:37:36.585Z,1631.00
2023-03-06T09:38:36.574Z,1621.00
2023-03-06T09:39:36.562Z,1613.00
2023-03-06T09:40:36.556Z,1601.00
2023-03-06T09:41:36.593Z,1591.00
2023-03-06T09:42:37.073Z,1586.00
2023-03-06T09:43:36.547Z,1573.00
2023-03-06T09:44:36.524Z,1566.00
2023-03-06T09:45:36.521Z,1564.00
2023-03-06T09:46:36.528Z,1599.00
2023-03-06T09:47:36.528Z,1660.00
2023-03-06T09:48:36.498Z,1654.00
2023-03-06T09:49:36.499Z,1639.00
2023-03-06T09:50:36.514Z,1650.00
2023-03-06T09:51:36.467Z,1651.00
2023-03-06T09:52:36.473Z,1665.00
2023-03-06T09:53:36.464Z,1705.00
2023-03-06T09:54:36.462Z,1704.00
2023-03-06T09:55:36.467Z,1746.00
2023-03-06T09:56:36.440Z,1780.00
2023-03-06T09:57:36.460Z,1805.00
2023-03-06T09:58:36.561Z,1836.00
2023-03-06T09:59:36.416Z,1863.00
2023-03-06T10:00:35.408Z,1919.00
2023-03-06T10:01:35.396Z,1946.00
2023-03-06T10:02:35.513Z,1971.00
2023-03-06T10:03:36.413Z,1984.00
2023-03-06T10:04:36.513Z,1996.00
2023-03-06T10:05:36.365Z,2016.00
2023-03-06T10:06:36.356Z,2037.00
2023-03-06T10:07:36.340Z,2058.00
2023-03-06T10:08:36.354Z,2073.00
2023-03-06T10:09:35.369Z,2094.00
2023-03-06T10:10:35.401Z,2114.00
2023-03-06T10:11:36.481Z,2128.00
2023-03-06T10:12:35.483Z,2139.00
2023-03-06T10:13:36.536Z,2148.00
2023-03-06T10:14:36.617Z,2163.00
2023-03-06T10:15:36.651Z,2173.00
2023-03-06T10:16:36.640Z,2180.00
2023-03-06T10:17:35.682Z,2192.00
2023-03-06T10:18:36.725Z,2201.00
2023-03-06T10:19:36.789Z,2212.00
2023-03-06T10:20:36.766Z,2226.00
2023-03-06T10:21:36.814Z,2241.00
2023-03-06T10:22:35.829Z,2254.00
2023-03-06T10:23:36.873Z,2268.00
2023-03-06T10:24:36.881Z,2284.00
2023-03-06T10:25:36.896Z,2290.00
2023-03-06T10:26:37.028Z,2304.00
2023-03-06T10:27:36.950Z,2317.00
2023-03-06T10:28:35.985Z,2327.00
2023-03-06T10:29:38.491Z,2341.00
2023-03-06T10:30:36.017Z,2359.00
2023-03-06T10:31:37.048Z,2370.00
2023-03-06T10:32:48.373Z,2392.00
2023-03-06T10:33:37.058Z,2401.00
2023-03-06T10:34:37.035Z,2408.00
2023-03-06T10:35:37.149Z,2419.00
2023-03-06T10:36:37.023Z,2436.00
2023-03-06T10:37:36.008Z,2447.00
2023-03-06T10:38:37.017Z,2458.00
2023-03-06T10:39:36.014Z,2469.00
2023-03-06T10:40:36.991Z,2502.00
2023-03-06T10:41:36.981Z,2515.00
2023-03-06T10:42:36.974Z,2530.00
2023-03-06T10:43:36.975Z,2531.00
2023-03-06T10:44:36.980Z,2534.00
2023-03-06T10:45:48.641Z,2541.00
2023-03-06T10:46:37.065Z,2549.00
2023-03-06T10:47:36.936Z,2551.00
2023-03-06T10:48:35.941Z,1566.00
2023-03-06T10:49:37.065Z,1547.00
2023-03-06T10:50:36.920Z,1697.00
2023-03-06T10:52:35.922Z,1914.00
2023-03-06T10:53:35.927Z,1903.00
2023-03-06T10:54:36.089Z,1882.00
2023-03-06T10:55:36.890Z,1878.00
2023-03-06T10:56:36.889Z,1892.00
2023-03-06T10:57:36.875Z,1924.00
2023-03-06T10:59:36.873Z,2056.00
2023-03-06T11:00:36.846Z,2070.00
2023-03-06T11:01:36.891Z,2092.00
2023-03-06T11:02:36.835Z,2105.00
2023-03-06T11:03:36.904Z,2132.00
2023-03-06T11:04:35.908Z,2171.00
2023-03-06T11:05:36.922Z,2197.00
2023-03-06T11:06:35.943Z,2234.00
2023-03-06T11:07:37.011Z,2252.00
2023-03-06T11:08:36.976Z,2250.00
2023-03-06T11:09:37.022Z,2249.00
2023-03-06T11:11:38.058Z,2246.00
2023-03-06T11:12:37.074Z,2247.00
2023-03-06T11:13:37.069Z,2249.00
2023-03-06T11:14:37.112Z,2250.00
2023-03-06T11:15:37.098Z,2251.00
2023-03-06T11:16:37.119Z,2252.00
2023-03-06T11:17:37.141Z,2252.00
2023-03-06T11:18:37.136Z,2256.00
2023-03-06T11:19:37.165Z,2259.00
2023-03-06T11:20:50.420Z,2258.00
2023-03-06T11:21:37.162Z,2262.00
2023-03-06T11:22:37.157Z,2267.00
2023-03-06T11:23:36.218Z,2270.00
2023-03-06T11:24:37.146Z,2275.00
2023-03-06T11:25:37.156Z,2282.00
2023-03-06T11:26:37.144Z,2292.00
2023-03-06T11:27:37.126Z,2304.00
2023-03-06T11:28:37.120Z,2309.00
2023-03-06T11:29:38.856Z,2312.00
2023-03-06T11:30:37.099Z,2320.00
2023-03-06T11:31:37.128Z,2326.00
2023-03-06T11:32:36.145Z,2328.00
2023-03-06T11:33:37.082Z,2325.00
2023-03-06T11:34:37.094Z,2322.00
2023-03-06T11:35:37.092Z,2321.00
2023-03-06T11:36:37.056Z,2327.00
2023-03-06T11:37:37.047Z,2331.00
2023-03-06T11:38:37.057Z,2336.00
2023-03-06T11:39:37.126Z,2338.00
2023-03-06T11:40:36.025Z,2331.00
2023-03-06T11:41:37.049Z,2333.00
2023-03-06T11:42:37.008Z,2336.00
2023-03-06T11:43:37.005Z,2332.00
2023-03-06T11:44:37.002Z,2326.00
2023-03-06T11:45:36.996Z,2310.00
2023-03-06T11:46:37.020Z,2296.00
2023-03-06T11:47:36.993Z,2284.00
2023-03-06T11:48:37.001Z,2275.00
2023-03-06T11:49:36.959Z,2268.00
2023-03-06T11:50:36.950Z,2263.00
2023-03-06T11:51:36.937Z,2254.00
2023-03-06T11:52:36.948Z,2244.00
2023-03-06T11:53:35.927Z,2231.00
2023-03-06T11:54:36.933Z,2217.00
2023-03-06T11:55:36.954Z,2192.00
2023-03-06T11:56:35.899Z,2173.00
2023-03-06T11:57:36.907Z,2148.00
2023-03-06T11:58:36.892Z,2123.00
2023-03-06T11:59:36.894Z,2102.00
2023-03-06T12:00:36.885Z,2065.00
2023-03-06T12:01:36.891Z,2005.00
2023-03-06T12:02:36.857Z,1995.00
2023-03-06T12:03:36.870Z,1986.00
2023-03-06T12:04:36.852Z,1980.00
2023-03-06T12:05:36.903Z,1965.00
2023-03-06T12:06:36.829Z,1926.00
2023-03-06T12:07:35.837Z,1909.00
2023-03-06T12:08:36.840Z,1887.00
2023-03-06T12:09:35.825Z,1868.00
2023-03-06T12:10:36.815Z,1850.00
2023-03-06T12:11:36.820Z,1819.00
2023-03-06T12:12:36.787Z,1798.00
2023-03-06T12:13:36.778Z,1786.00
2023-03-06T12:14:36.767Z,1769.00
2023-03-06T12:15:36.792Z,1757.00
2023-03-06T12:16:35.829Z,1744.00
2023-03-06T12:17:36.765Z,1710.00
2023-03-06T12:18:36.759Z,1692.00
2023-03-06T12:19:36.738Z,1644.00
2023-03-06T12:20:36.723Z,1634.00
2023-03-06T12:21:36.715Z,1629.00
2023-03-06T12:22:36.725Z,1613.00
2023-03-06T12:23:36.713Z,1601.00
2023-03-06T12:24:36.702Z,1592.00
2023-03-06T12:25:36.698Z,1570.00
2023-03-06T12:26:36.735Z,1560.00
2023-03-06T12:27:36.719Z,1548.00
2023-03-06T12:28:36.664Z,1536.00
2023-03-06T12:29:36.660Z,1530.00
2023-03-06T12:30:35.649Z,1519.00
2023-03-06T12:31:35.675Z,1503.00
2023-03-06T12:32:36.741Z,1492.00
2023-03-06T12:33:36.630Z,1481.00
2023-03-06T12:34:36.622Z,1461.00
2023-03-06T12:35:35.690Z,1444.00
2023-03-06T12:36:36.642Z,1433.00
2023-03-06T12:37:36.663Z,1421.00
2023-03-06T12:38:36.669Z,1409.00
2023-03-06T12:39:36.145Z,1403.00
2023-03-06T12:40:36.706Z,1398.00
2023-03-06T12:41:36.735Z,1392.00
2023-03-06T12:42:36.754Z,1384.00
2023-03-06T12:43:38.930Z,1374.00
2023-03-06T12:44:36.801Z,1367.00
2023-03-06T12:45:37.029Z,1362.00
2023-03-06T12:46:35.757Z,1353.00
2023-03-06T12:47:36.736Z,1342.00
2023-03-06T12:48:36.725Z,1331.00
2023-03-06T12:49:36.727Z,1318.00
2023-03-06T12:50:36.734Z,1311.00
2023-03-06T12:51:36.720Z,1312.00
2023-03-06T13:02:36.666Z,1166.00
2023-03-06T13:03:35.614Z,1146.00
2023-03-06T13:06:41.983Z,1081.00
2023-03-06T13:09:36.598Z,1020.00
2023-03-06T14:27:37.681Z,1462.00
2023-03-06T14:28:37.730Z,1473.00
2023-03-06T14:29:37.779Z,1482.00
2023-03-06T14:31:36.951Z,1493.00
2023-03-06T14:32:36.956Z,1492.00
2023-03-06T14:33:37.999Z,1495.00
2023-03-06T14:34:38.053Z,1503.00
2023-03-06T14:35:38.185Z,1516.00
2023-03-06T14:36:38.122Z,1524.00
2023-03-06T14:37:38.181Z,1540.00
2023-03-06T14:38:38.212Z,1559.00
2023-03-06T14:39:38.275Z,1569.00
2023-03-06T14:40:38.297Z,1577.00
2023-03-06T14:41:38.325Z,1591.00
2023-03-06T14:42:38.374Z,1633.00
2023-03-06T14:43:38.407Z,1645.00
2023-03-06T14:44:38.454Z,1651.00
2023-03-06T14:46:37.618Z,1670.00
2023-03-06T14:47:38.558Z,1679.00
2023-03-06T14:48:38.599Z,1698.00
2023-03-06T14:49:38.614Z,1716.00
2023-03-06T14:50:40.325Z,1733.00
2023-03-06T14:51:38.658Z,1742.00
2023-03-06T14:52:38.630Z,1748.00
2023-03-06T14:53:37.632Z,1755.00
2023-03-06T14:54:38.622Z,1779.00
2023-03-06T14:55:37.631Z,1790.00
2023-03-06T14:56:38.598Z,1796.00
2023-03-06T14:57:38.585Z,1797.00
2023-03-06T14:58:38.595Z,1803.00
2023-03-06T14:59:38.576Z,1808.00
2023-03-06T15:00:38.609Z,1810.00
2023-03-06T15:01:38.648Z,1807.00
2023-03-06T15:02:38.613Z,1808.00
2023-03-06T15:03:37.555Z,1808.00
2023-03-06T15:04:38.545Z,1808.00
2023-03-06T15:05:38.548Z,1802.00
2023-03-06T15:06:38.622Z,1795.00
2023-03-06T15:07:37.549Z,1795.00
2023-03-06T15:08:38.524Z,1792.00
2023-03-06T15:09:37.506Z,1791.00
2023-03-06T15:10:38.498Z,1787.00
2023-03-06T15:11:38.485Z,1791.00
2023-03-06T15:12:38.577Z,1792.00
2023-03-06T15:13:38.474Z,1793.00
2023-03-06T15:14:37.466Z,1790.00
2023-03-06T15:15:37.470Z,1785.00
2023-03-06T15:16:38.543Z,1781.00
2023-03-06T15:17:38.553Z,1783.00
2023-03-06T15:18:39.018Z,1780.00
2023-03-06T15:19:38.659Z,1784.00
2023-03-06T15:20:38.720Z,1786.00
2023-03-06T15:21:38.790Z,1792.00
2023-03-06T15:22:38.865Z,1799.00
2023-03-06T15:23:37.957Z,1804.00
2023-03-06T15:24:38.958Z,1809.00
2023-03-06T15:25:38.014Z,1821.00
2023-03-06T15:28:39.188Z,1858.00
2023-03-06T15:29:39.253Z,1874.00
2023-03-06T15:30:39.310Z,1882.00
2023-03-06T15:31:39.400Z,1890.00
2023-03-06T15:32:39.439Z,1906.00
2023-03-06T15:33:39.452Z,1923.00
2023-03-06T15:34:39.532Z,1932.00
2023-03-06T15:35:39.620Z,1941.00
2023-03-06T15:36:39.609Z,1950.00
2023-03-06T15:37:38.656Z,1963.00
2023-03-06T15:38:39.695Z,1977.00
2023-03-06T15:39:39.778Z,1982.00
2023-03-06T15:43:39.964Z,2007.00
2023-03-06T15:44:38.995Z,2014.00
2023-03-06T15:45:40.095Z,2023.00
2023-03-06T15:46:40.098Z,2029.00
2023-03-06T15:47:40.162Z,2035.00
2023-03-06T15:48:39.208Z,2042.00
2023-03-06T15:49:40.268Z,2044.00
2023-03-06T15:50:40.440Z,2055.00
2023-03-06T15:51:40.360Z,2063.00
2023-03-06T15:52:40.392Z,2072.00
2023-03-06T15:53:40.438Z,2083.00
2023-03-06T15:54:40.504Z,2098.00
2023-03-06T15:55:40.574Z,2106.00
2023-03-06T15:56:39.588Z,2115.00
2023-03-06T15:57:39.652Z,2124.00
2023-03-06T15:58:40.737Z,2145.00
2023-03-06T15:59:40.750Z,2171.00
2023-03-06T16:00:40.810Z,2176.00
2023-03-06T16:01:40.840Z,2181.00
2023-03-06T16:02:40.881Z,2188.00
2023-03-06T16:03:40.931Z,2191.00
2023-03-06T16:04:40.988Z,2197.00
2023-03-06T16:05:41.030Z,2205.00
2023-03-06T16:06:41.083Z,2217.00
2023-03-06T16:07:41.127Z,2218.00
2023-03-06T16:08:40.169Z,2220.00
2023-03-06T16:09:40.233Z,2224.00
2023-03-06T16:10:41.297Z,2224.00
2023-03-06T16:11:43.923Z,2227.00
2023-03-06T16:12:40.340Z,2240.00
2023-03-06T16:13:41.336Z,2243.00
2023-03-06T16:14:40.338Z,2240.00
2023-03-06T16:15:40.329Z,2234.00
2023-03-06T16:16:41.453Z,2218.00
2023-03-06T16:17:41.298Z,2199.00
2023-03-06T16:18:41.283Z,2172.00
2023-03-06T16:19:41.283Z,2152.00
2023-03-06T16:20:41.284Z,2141.00
2023-03-06T16:21:41.278Z,2128.00
2023-03-06T16:22:41.256Z,2119.00
2023-03-06T16:23:41.239Z,2107.00
2023-03-06T16:24:41.245Z,2096.00
2023-03-06T16:25:41.222Z,2084.00
2023-03-06T16:26:41.223Z,2072.00
2023-03-06T16:27:41.239Z,2060.00
2023-03-06T16:28:41.222Z,2049.00
2023-03-06T16:29:40.204Z,2043.00
2023-03-06T16:31:59.556Z,2018.00
2023-03-06T16:33:00.332Z,2023.00
2023-03-06T16:34:00.259Z,2018.00
2023-03-06T16:35:00.257Z,2019.00
2023-03-06T16:35:59.268Z,2018.00
2023-03-06T16:37:00.222Z,2018.00
2023-03-06T16:38:00.256Z,2015.00
2023-03-06T16:39:00.227Z,2014.00
2023-03-06T16:40:00.216Z,2008.00
2023-03-06T16:41:00.247Z,2009.00
2023-03-06T16:41:59.216Z,2014.00
2023-03-06T16:42:59.251Z,2013.00
2023-03-06T16:44:00.181Z,2015.00
2023-03-06T16:45:00.184Z,2013.00
2023-03-06T16:46:00.195Z,2016.00
2023-03-06T16:47:00.185Z,2017.00
2023-03-06T16:48:00.456Z,2017.00
2023-03-06T16:49:00.179Z,2016.00
2023-03-06T16:50:00.240Z,2012.00
2023-03-06T16:51:00.137Z,2012.00
2023-03-06T16:52:00.122Z,2010.00
2023-03-06T16:53:00.153Z,2008.00
2023-03-06T16:54:00.117Z,2009.00
2023-03-06T16:54:59.112Z,2006.00
2023-03-06T16:56:00.176Z,2006.00
2023-03-06T16:57:00.114Z,2004.00
2023-03-06T16:58:00.129Z,2007.00
2023-03-06T16:59:00.118Z,2007.00
2023-03-06T16:59:59.063Z,2007.00
2023-03-06T17:01:00.165Z,2005.00
2023-03-06T17:02:00.095Z,2000.00
2023-03-06T17:03:00.088Z,1992.00
2023-03-06T17:04:00.044Z,1985.00
2023-03-06T17:05:00.028Z,1983.00
2023-03-06T17:06:00.040Z,1981.00
2023-03-06T17:07:00.030Z,1974.00
2023-03-06T17:08:00.027Z,1973.00
2023-03-06T17:08:59.995Z,1973.00
2023-03-06T17:09:58.998Z,1969.00
2023-03-06T17:10:59.992Z,1968.00
2023-03-06T17:11:58.982Z,1965.00
2023-03-06T17:12:59.963Z,1961.00
2023-03-06T17:14:00.025Z,1956.00
2023-03-06T17:15:00.049Z,1954.00
2023-03-06T17:16:00.188Z,1953.00
2023-03-06T17:17:00.147Z,1949.00
2023-03-06T17:18:00.229Z,1944.00
2023-03-06T17:19:00.219Z,1943.00
2023-03-06T17:20:00.270Z,1937.00
2023-03-06T17:21:00.372Z,1932.00
2023-03-06T17:22:00.406Z,1928.00
2023-03-06T17:23:00.428Z,1921.00
2023-03-06T17:24:00.474Z,1919.00
2023-03-06T17:25:00.531Z,1913.00
2023-03-06T17:26:00.616Z,1912.00
2023-03-06T17:26:59.654Z,1911.00
2023-03-06T17:28:00.707Z,1913.00
2023-03-06T17:28:59.779Z,1913.00
2023-03-06T17:30:00.826Z,1908.00
2023-03-06T17:31:00.957Z,1899.00
2023-03-06T17:32:00.945Z,1894.00
2023-03-06T17:33:01.027Z,1885.00
2023-03-06T17:34:01.044Z,1878.00
2023-03-06T17:35:01.125Z,1875.00
2023-03-06T17:36:00.175Z,1870.00
2023-03-06T17:37:01.303Z,1865.00
2023-03-06T17:38:00.337Z,1864.00
2023-03-06T17:39:02.105Z,1859.00
2023-03-06T17:40:00.436Z,1856.00
2023-03-06T17:41:01.506Z,1850.00
2023-03-06T17:42:01.554Z,1845.00
2023-03-06T17:43:01.606Z,1841.00
2023-03-06T17:44:00.695Z,1836.00
2023-03-06T17:45:01.730Z,1835.00
2023-03-06T17:46:01.899Z,1833.00
2023-03-06T17:47:01.853Z,1831.00
2023-03-06T17:48:01.918Z,1830.00
2023-03-06T17:49:01.943Z,1825.00
2023-03-06T17:50:02.042Z,1819.00
2023-03-06T17:51:02.144Z,1813.00
2023-03-06T17:52:01.159Z,1810.00
2023-03-06T17:53:02.159Z,1806.00
2023-03-06T17:54:02.222Z,1804.00
2023-03-06T17:55:02.273Z,1802.00
2023-03-06T17:56:02.402Z,1800.00
2023-03-06T17:57:02.408Z,1796.00
2023-03-06T17:58:02.393Z,1793.00
2023-03-06T17:59:02.433Z,1782.00
2023-03-06T18:00:02.486Z,1774.00
2023-03-06T18:01:02.553Z,1769.00
2023-03-06T18:02:02.753Z,1763.00
2023-03-06T18:03:02.672Z,1758.00
2023-03-06T18:04:02.690Z,1753.00
2023-03-06T18:05:01.825Z,1749.00
2023-03-06T18:06:02.783Z,1741.00
2023-03-06T18:07:02.806Z,1739.00
2023-03-06T18:08:02.856Z,1731.00
2023-03-06T18:09:02.832Z,1727.00
2023-03-06T18:10:02.847Z,1727.00
2023-03-06T18:11:02.870Z,1727.00
2023-03-06T18:12:02.893Z,1725.00
2023-03-06T18:13:02.931Z,1720.00
2023-03-06T18:14:05.380Z,1716.00
2023-03-06T18:15:01.939Z,1711.00
2023-03-06T18:16:02.969Z,1713.00
2023-03-06T18:17:02.903Z,1710.00
2023-03-06T18:18:02.887Z,1705.00
2023-03-06T18:19:01.912Z,1692.00
2023-03-06T18:20:02.947Z,1682.00
2023-03-06T18:21:02.863Z,1679.00
2023-03-06T18:22:02.868Z,1677.00
2023-03-06T18:23:02.869Z,1679.00
2023-03-06T18:24:02.835Z,1676.00
2023-03-06T18:25:01.877Z,1671.00
2023-03-06T18:26:02.867Z,1665.00
2023-03-06T18:27:02.825Z,1661.00
2023-03-06T18:28:02.805Z,1658.00
2023-03-06T18:29:02.811Z,1655.00
2023-03-06T18:30:02.796Z,1650.00
2023-03-06T18:31:02.786Z,1644.00
2023-03-06T18:32:02.948Z,1639.00
2023-03-06T18:33:02.759Z,1637.00
2023-03-06T18:34:02.752Z,1636.00
2023-03-06T18:35:02.777Z,1631.00
2023-03-06T18:36:02.747Z,1626.00
2023-03-06T18:37:02.771Z,1623.00
2023-03-06T18:38:02.732Z,1618.00
2023-03-06T18:39:02.721Z,1613.00
2023-03-06T18:40:01.750Z,1610.00
2023-03-06T18:41:02.712Z,1610.00
2023-03-06T18:42:02.685Z,1608.00
2023-03-06T18:43:02.710Z,1607.00
2023-03-06T18:44:02.864Z,1606.00
2023-03-06T18:45:02.722Z,1602.00
2023-03-06T18:46:02.727Z,1601.00
2023-03-06T18:47:02.721Z,1595.00
2023-03-06T18:48:02.645Z,1591.00
2023-03-06T18:49:02.653Z,1587.00
2023-03-06T18:50:02.760Z,1584.00
2023-03-06T18:51:01.668Z,1581.00
2023-03-06T18:52:02.635Z,1578.00
2023-03-06T18:53:02.612Z,1578.00
2023-03-06T18:54:02.615Z,1577.00
2023-03-06T18:55:02.681Z,1572.00
2023-03-06T18:56:02.618Z,1566.00
2023-03-06T18:57:01.602Z,1560.00
2023-03-06T18:58:02.559Z,1553.00
2023-03-06T18:59:01.616Z,1546.00
2023-03-06T19:00:01.594Z,1548.00
2023-03-06T19:01:02.570Z,1545.00
2023-03-06T19:02:02.566Z,1545.00
2023-03-06T19:03:01.569Z,1543.00
2023-03-06T19:04:02.584Z,1541.00
2023-03-06T19:05:01.519Z,1540.00
2023-03-06T19:06:02.519Z,1536.00
2023-03-06T19:07:02.535Z,1535.00
2023-03-06T19:08:02.554Z,1530.00
2023-03-06T19:09:02.488Z,1528.00
2023-03-06T19:10:02.479Z,1524.00
2023-03-06T19:11:02.483Z,1519.00
2023-03-06T19:12:02.481Z,1513.00
2023-03-06T19:13:02.486Z,1510.00
2023-03-06T19:14:02.479Z,1509.00
2023-03-06T19:15:02.458Z,1506.00
2023-03-06T19:16:02.445Z,1504.00
2023-03-06T19:17:01.456Z,1507.00
2023-03-06T19:18:02.422Z,1505.00
2023-03-06T19:19:02.459Z,1501.00
2023-03-06T19:20:02.480Z,1500.00
2023-03-06T19:21:02.392Z,1500.00
2023-03-06T19:22:02.460Z,1499.00
2023-03-06T19:23:02.417Z,1494.00
2023-03-06T19:24:02.383Z,1490.00
2023-03-06T19:25:03.913Z,1485.00
2023-03-06T19:26:02.524Z,1483.00
2023-03-06T19:27:02.512Z,1478.00
2023-03-06T19:28:02.536Z,1477.00
2023-03-06T19:29:02.504Z,1476.00
2023-03-06T19:30:02.504Z,1472.00
2023-03-06T19:31:01.506Z,1471.00
2023-03-06T19:32:02.761Z,1468.00
2023-03-06T19:33:02.526Z,1466.00
2023-03-06T19:34:02.505Z,1462.00
2023-03-06T19:35:01.510Z,1462.00
2023-03-06T19:36:02.541Z,1457.00
2023-03-06T19:37:01.498Z,1453.00
2023-03-06T19:38:02.507Z,1451.00
2023-03-06T19:39:02.533Z,1452.00
2023-03-06T19:40:02.496Z,1448.00
2023-03-06T19:41:02.515Z,1449.00
2023-03-06T19:42:02.508Z,1445.00
2023-03-06T19:43:02.510Z,1440.00
2023-03-06T19:44:02.545Z,1438.00
2023-03-06T19:45:02.518Z,1435.00
2023-03-06T19:46:02.555Z,1433.00
2023-03-06T19:47:02.542Z,1434.00
2023-03-06T19:48:02.534Z,1432.00
2023-03-06T19:49:01.558Z,1432.00
2023-03-06T19:50:02.534Z,1429.00
2023-03-06T19:51:01.522Z,1421.00
2023-03-06T19:52:02.542Z,1415.00
2023-03-06T19:53:02.552Z,1413.00
2023-03-06T19:54:01.555Z,1413.00
2023-03-06T19:55:02.600Z,1409.00
2023-03-06T19:56:01.578Z,1408.00
2023-03-06T19:57:06.486Z,1404.00
2023-03-06T19:58:02.574Z,1406.00
2023-03-06T19:59:02.576Z,1406.00
2023-03-06T20:00:02.551Z,1406.00
2023-03-06T20:01:02.620Z,1404.00
2023-03-06T20:02:01.559Z,1399.00
2023-03-06T20:03:02.597Z,1399.00
2023-03-06T20:04:02.531Z,1399.00
2023-03-06T20:05:01.534Z,1398.00
2023-03-06T20:06:02.526Z,1393.00
2023-03-06T20:07:02.512Z,1393.00
2023-03-06T20:08:02.519Z,1390.00
2023-03-06T20:09:02.505Z,1388.00